Time;durP1;ratioP1;P1;durP2;ratioP2;P2;SDS_P1;SDS_P2;PMS_P1;PMS_P2;Temp;Humidity;BMP_temperature;BMP_pressure;BME280_temperature;BME280_humidity;BME280_pressure;Samples;Min_cycle;Max_cycle;Signal;HPM_P1;HPM_P2
2022/08/13 00:01:13;;;;;;;10.35;4.35;;;;;;;;;;5009658;28;20057;-68
2022/08/13 00:03:40;;;;;;;10.93;4.03;;;;;;;;;;5009250;28;20049;-68
2022/08/13 00:06:08;;;;;;;11.30;4.40;;;;;;;;;;5009058;28;20046;-68
2022/08/13 00:08:35;;;;;;;14.43;4.63;;;;;;;;;;5009336;28;20438;-68
2022/08/13 00:11:02;;;;;;;13.32;4.60;;;;;;;;;;5009316;28;20054;-68
2022/08/13 00:13:28;;;;;;;13.07;4.80;;;;;;;;;;5009493;28;20196;-68
2022/08/13 00:15:54;;;;;;;17.60;4.93;;;;;;;;;;4991487;28;20045;-68
2022/08/13 00:18:23;;;;;;;14.13;4.90;;;;;;;;;;5009320;28;20168;-68
2022/08/13 00:20:57;;;;;;;10.40;4.57;;;;;;;;;;5008993;28;20090;-68
2022/08/13 00:23:24;;;;;;;13.52;4.85;;;;;;;;;;5011847;28;20041;-68
2022/08/13 00:25:54;;;;;;;10.73;4.80;;;;;;;;;;5012768;28;20441;-68
2022/08/13 00:28:21;;;;;;;13.10;4.90;;;;;;;;;;5013117;28;20054;-68
2022/08/13 00:30:48;;;;;;;10.10;4.68;;;;;;;;;;5012919;28;20435;-68
2022/08/13 00:33:19;;;;;;;11.38;4.72;;;;;;;;;;5012993;28;20105;-68
2022/08/13 00:35:47;;;;;;;13.57;5.00;;;;;;;;;;5012997;28;20045;-68
2022/08/13 00:38:29;;;;;;;11.93;5.00;;;;;;;;;;5013072;28;20163;-68
2022/08/13 00:41:00;;;;;;;14.35;5.03;;;;;;;;;;5012893;28;20054;-68
2022/08/13 00:43:33;;;;;;;11.98;4.82;;;;;;;;;;5012673;28;20097;-68
2022/08/13 00:46:00;;;;;;;13.45;4.82;;;;;;;;;;5012752;28;20041;-68
2022/08/13 00:48:42;;;;;;;11.98;5.40;;;;;;;;;;5012442;28;20057;-68
2022/08/13 00:51:09;;;;;;;11.15;5.28;;;;;;;;;;5012753;28;20057;-67
2022/08/13 00:53:37;;;;;;;11.70;5.03;;;;;;;;;;5012411;28;20147;-68
2022/08/13 00:56:03;;;;;;;13.18;4.90;;;;;;;;;;5012391;28;20053;-67
2022/08/13 00:58:33;;;;;;;12.05;4.90;;;;;;;;;;5011970;28;20072;-68
2022/08/13 01:01:00;;;;;;;11.73;4.65;;;;;;;;;;5012564;28;20123;-67
2022/08/13 01:03:31;;;;;;;14.60;4.93;;;;;;;;;;5012312;28;20069;-68
2022/08/13 01:06:01;;;;;;;13.45;4.90;;;;;;;;;;5012177;28;20038;-67
2022/08/13 01:08:34;;;;;;;10.93;4.95;;;;;;;;;;5012000;28;20468;-68
2022/08/13 01:11:20;;;;;;;12.35;4.82;;;;;;;;;;4994596;28;20400;-68
2022/08/13 01:13:47;;;;;;;14.32;4.90;;;;;;;;;;5012020;28;20053;-66
2022/08/13 01:16:14;;;;;;;15.88;5.30;;;;;;;;;;5012146;28;20077;-66
2022/08/13 01:18:50;;;;;;;11.60;5.28;;;;;;;;;;5011841;28;20045;-68
2022/08/13 01:21:18;;;;;;;14.68;5.47;;;;;;;;;;5012097;28;20045;-67
2022/08/13 01:23:45;;;;;;;14.38;5.03;;;;;;;;;;5011764;28;20101;-68
2022/08/13 01:26:12;;;;;;;12.35;5.00;;;;;;;;;;5010901;28;20069;-68
2022/08/13 01:28:38;;;;;;;16.15;5.47;;;;;;;;;;5011811;28;20057;-68
2022/08/13 01:31:06;;;;;;;11.57;5.07;;;;;;;;;;5011668;28;20057;-67
2022/08/13 01:33:35;;;;;;;13.73;5.07;;;;;;;;;;5010655;28;20054;-68
2022/08/13 01:36:02;;;;;;;12.52;5.10;;;;;;;;;;5011454;28;20072;-67
2022/08/13 01:38:28;;;;;;;11.55;5.60;;;;;;;;;;5011413;28;20049;-67
2022/08/13 01:40:54;;;;;;;14.82;5.85;;;;;;;;;;4993872;28;20124;-67
2022/08/13 01:43:21;;;;;;;16.38;5.20;;;;;;;;;;5011394;28;20137;-67
2022/08/13 01:45:49;;;;;;;12.82;5.75;;;;;;;;;;5011296;28;20132;-67
2022/08/13 01:51:03;;;;;;;12.05;5.20;;;;;;;;;;5011280;28;20354;-68
2022/08/13 01:53:29;;;;;;;14.18;5.28;;;;;;;;;;4993208;28;20053;-68
2022/08/13 01:55:56;;;;;;;12.23;5.30;;;;;;;;;;5010825;28;20058;-68
2022/08/13 01:58:24;;;;;;;22.15;5.20;;;;;;;;;;5011112;28;20069;-68
2022/08/13 02:00:53;;;;;;;13.00;4.75;;;;;;;;;;5010766;28;20133;-68
2022/08/13 02:03:19;;;;;;;12.85;5.15;;;;;;;;;;5010931;28;20057;-68
2022/08/13 02:05:47;;;;;;;12.20;5.05;;;;;;;;;;5010672;28;20561;-68
2022/08/13 02:08:14;;;;;;;11.35;5.05;;;;;;;;;;5010728;28;20125;-67
2022/08/13 02:10:42;;;;;;;14.18;5.32;;;;;;;;;;4992571;28;20483;-68
2022/08/13 02:13:11;;;;;;;12.38;5.30;;;;;;;;;;5010303;28;20573;-68
2022/08/13 02:15:37;;;;;;;12.93;5.38;;;;;;;;;;5010608;28;20053;-68
2022/08/13 02:18:04;;;;;;;13.50;5.57;;;;;;;;;;5010535;28;20072;-68
2022/08/13 02:20:36;;;;;;;12.27;5.15;;;;;;;;;;5010246;28;20081;-68
2022/08/13 02:23:03;;;;;;;14.82;4.95;;;;;;;;;;5010657;28;20200;-68
2022/08/13 02:25:29;;;;;;;13.93;5.82;;;;;;;;;;5010298;28;20485;-68
2022/08/13 02:27:56;;;;;;;15.57;4.93;;;;;;;;;;4992749;28;20155;-68
2022/08/13 02:30:26;;;;;;;12.07;4.90;;;;;;;;;;5010546;28;20053;-68
2022/08/13 02:32:53;;;;;;;12.88;4.97;;;;;;;;;;5010508;28;20129;-68
2022/08/13 02:35:23;;;;;;;10.95;4.80;;;;;;;;;;5010742;28;20104;-67
2022/08/13 02:37:49;;;;;;;16.30;5.10;;;;;;;;;;5010507;28;20046;-68
2022/08/13 02:43:02;;;;;;;15.13;5.13;;;;;;;;;;5010452;28;20060;-68
2022/08/13 02:45:28;;;;;;;14.02;5.20;;;;;;;;;;5010052;28;20041;-67
2022/08/13 02:47:57;;;;;;;12.18;5.55;;;;;;;;;;5010157;28;20109;-68
2022/08/13 02:50:24;;;;;;;15.45;5.10;;;;;;;;;;5010028;28;20046;-68
2022/08/13 02:52:51;;;;;;;11.90;5.43;;;;;;;;;;5010218;28;20054;-68
2022/08/13 02:55:22;;;;;;;12.75;5.65;;;;;;;;;;5009993;28;20088;-68
2022/08/13 02:57:48;;;;;;;11.80;4.95;;;;;;;;;;5009716;28;20053;-68
2022/08/13 03:00:15;;;;;;;14.38;4.95;;;;;;;;;;4992246;28;20442;-68
2022/08/13 03:02:44;;;;;;;15.55;5.47;;;;;;;;;;4991995;28;20090;-68
2022/08/13 03:05:12;;;;;;;14.18;5.20;;;;;;;;;;5009980;28;20060;-68
2022/08/13 03:07:41;;;;;;;12.35;5.22;;;;;;;;;;5009466;28;20057;-68
2022/08/13 03:10:11;;;;;;;13.95;5.05;;;;;;;;;;4991888;28;20050;-67
2022/08/13 03:12:38;;;;;;;12.48;4.93;;;;;;;;;;5009928;28;20212;-70
2022/08/13 03:15:05;;;;;;;16.50;5.13;;;;;;;;;;5009735;28;20132;-68
2022/08/13 03:17:31;;;;;;;12.45;5.35;;;;;;;;;;5009899;28;20140;-68
2022/08/13 03:19:57;;;;;;;;;;;;;;;;;;5010045;28;20057;-68
2022/08/13 03:22:26;;;;;;;11.88;5.30;;;;;;;;;;5009927;28;19922;-68
2022/08/13 03:24:52;;;;;;;11.48;4.95;;;;;;;;;;4992028;28;20049;-68
2022/08/13 03:27:18;;;;;;;;;;;;;;;;;;5010097;28;20081;-68
2022/08/13 03:29:44;;;;;;;11.98;4.97;;;;;;;;;;5009753;28;19991;-68
2022/08/13 03:32:11;;;;;;;;;;;;;;;;;;4992635;28;20347;-68
2022/08/13 03:34:37;;;;;;;11.37;5.30;;;;;;;;;;5009427;28;20340;-68
2022/08/13 03:37:02;;;;;;;;;;;;;;;;;;5009957;28;20146;-68
2022/08/13 03:39:29;;;;;;;11.10;4.72;;;;;;;;;;5009518;28;20349;-68
2022/08/13 03:41:56;;;;;;;13.02;4.93;;;;;;;;;;5009601;28;20084;-68
2022/08/13 03:44:22;;;;;;;12.07;5.18;;;;;;;;;;5009513;28;20126;-68
2022/08/13 03:46:48;;;;;;;;;;;;;;;;;;5009937;28;20065;-68
2022/08/13 03:49:14;;;;;;;12.07;5.10;;;;;;;;;;5009210;28;19921;-68
2022/08/13 03:51:40;;;;;;;13.65;5.00;;;;;;;;;;5009547;28;20046;-68
2022/08/13 03:54:06;;;;;;;;;;;;;;;;;;5009829;28;20056;-68
2022/08/13 03:56:32;;;;;;;13.32;5.13;;;;;;;;;;5009349;28;20005;-68
2022/08/13 03:59:02;;;;;;;12.95;5.07;;;;;;;;;;5013403;28;20435;-68
2022/08/13 04:01:28;;;;;;;13.02;5.00;;;;;;;;;;5013295;28;20050;-68
2022/08/13 04:03:54;;;;;;;;;;;;;;;;;;5013293;28;20086;-68
2022/08/13 04:06:23;;;;;;;16.40;5.50;;;;;;;;;;5027528;28;19921;-68
2022/08/13 04:08:50;;;;;;;12.23;5.28;;;;;;;;;;5012750;28;20473;-68
2022/08/13 04:11:17;;;;;;;12.40;5.57;;;;;;;;;;5012760;28;20046;-68
2022/08/13 04:13:44;;;;;;;13.45;5.78;;;;;;;;;;5012457;28;20108;-68
2022/08/13 04:16:12;;;;;;;16.92;6.10;;;;;;;;;;4994452;28;20438;-68
2022/08/13 04:18:38;;;;;;;11.90;5.85;;;;;;;;;;4994640;28;20077;-68
2022/08/13 04:21:06;;;;;;;11.43;5.63;;;;;;;;;;5012345;28;20155;-68
2022/08/13 04:23:34;;;;;;;10.85;5.05;;;;;;;;;;5012348;28;20058;-68
2022/08/13 04:26:00;;;;;;;12.43;5.45;;;;;;;;;;5012819;28;20069;-68
2022/08/13 04:28:26;;;;;;;12.02;5.25;;;;;;;;;;5012360;28;20473;-68
2022/08/13 04:30:53;;;;;;;10.82;5.40;;;;;;;;;;5012764;28;20085;-68
2022/08/13 04:33:19;;;;;;;12.20;5.55;;;;;;;;;;5012788;28;20057;-68
2022/08/13 04:35:45;;;;;;;;;;;;;;;;;;5011901;28;20553;-68
2022/08/13 04:38:12;;;;;;;13.73;5.32;;;;;;;;;;5027698;28;19969;-68
2022/08/13 04:40:42;;;;;;;13.40;5.40;;;;;;;;;;4994576;28;20108;-68
2022/08/13 04:43:10;;;;;;;15.40;5.47;;;;;;;;;;5012269;28;20100;-68
2022/08/13 04:45:36;;;;;;;16.05;5.45;;;;;;;;;;5012125;28;20080;-68
2022/08/13 04:48:12;;;;;;;12.13;5.22;;;;;;;;;;5012444;28;20143;-68
2022/08/13 04:50:39;;;;;;;10.90;5.00;;;;;;;;;;4994863;28;20065;-68
2022/08/13 04:53:06;;;;;;;15.73;5.05;;;;;;;;;;5012093;28;20054;-68
2022/08/13 04:55:33;;;;;;;17.48;5.00;;;;;;;;;;5012050;28;20077;-68
2022/08/13 04:57:59;;;;;;;11.90;5.00;;;;;;;;;;5011277;28;20072;-68
2022/08/13 05:00:31;;;;;;;13.02;4.72;;;;;;;;;;5011703;28;20053;-67
2022/08/13 05:02:57;;;;;;;12.20;5.05;;;;;;;;;;5011513;28;20072;-68
2022/08/13 05:05:24;;;;;;;;;;;;;;;;;;5011795;28;20049;-68
2022/08/13 05:07:52;;;;;;;12.73;4.90;;;;;;;;;;5011297;28;19993;-68
2022/08/13 05:10:18;;;;;;;16.50;4.75;;;;;;;;;;5011477;28;20054;-68
2022/08/13 05:12:44;;;;;;;11.90;4.95;;;;;;;;;;5011190;28;20133;-68
2022/08/13 05:15:12;;;;;;;;;;;;;;;;;;5011068;28;20053;-68
2022/08/13 05:17:39;;;;;;;14.38;4.60;;;;;;;;;;5010827;28;19925;-68
2022/08/13 05:20:05;;;;;;;15.02;5.05;;;;;;;;;;5011054;28;20112;-68
2022/08/13 05:22:31;;;;;;;9.73;4.68;;;;;;;;;;5010924;28;20046;-68
2022/08/13 05:24:57;;;;;;;;;;;;;;;;;;5011445;28;20362;-68
2022/08/13 05:27:23;;;;;;;10.85;4.85;;;;;;;;;;5011152;28;19929;-67
2022/08/13 05:29:51;;;;;;;;;;;;;;;;;;5011276;28;20057;-68
2022/08/13 05:32:17;;;;;;;13.50;5.38;;;;;;;;;;5010976;28;19943;-68
2022/08/13 05:34:43;;;;;;;;;;;;;;;;;;5011300;28;20196;-67
2022/08/13 05:37:16;;;;;;;11.43;5.03;;;;;;;;;;5010787;28;20249;-68
2022/08/13 05:39:42;;;;;;;12.23;4.85;;;;;;;;;;5010706;28;20079;-67
2022/08/13 05:42:09;;;;;;;12.43;4.40;;;;;;;;;;5011093;28;20049;-68
2022/08/13 05:44:35;;;;;;;11.68;4.90;;;;;;;;;;5010868;28;20045;-67
2022/08/13 05:47:01;;;;;;;12.63;4.80;;;;;;;;;;5010769;28;20076;-68
2022/08/13 05:49:27;;;;;;;;;;;;;;;;;;5010952;28;20072;-68
2022/08/13 05:51:53;;;;;;;11.57;4.80;;;;;;;;;;5010976;28;19922;-68
2022/08/13 05:54:19;;;;;;;;;;;;;;;;;;5010807;28;20159;-68
2022/08/13 05:56:45;;;;;;;12.05;4.20;;;;;;;;;;5010143;28;19979;-68
2022/08/13 06:03:24;;;;;;;10.48;4.72;;;;;;;;;;5010552;28;20081;-68
2022/08/13 06:04:42;;;;;;;12.52;4.75;;;;;;;;;;4993328;28;20066;-67
2022/08/13 06:07:09;;;;;;;;;;;;;;;;;;5010856;28;20461;-67
2022/08/13 06:09:35;;;;;;;10.95;4.13;;;;;;;;;;4992859;28;19921;-68
2022/08/13 06:12:02;;;;;;;13.07;4.50;;;;;;;;;;5010336;28;20133;-68
2022/08/13 06:14:31;;;;;;;;;;;;;;;;;;4993205;28;20178;-68
2022/08/13 06:16:57;;;;;;;12.05;4.88;;;;;;;;;;5009624;28;19921;-68
2022/08/13 06:19:24;;;;;;;10.90;4.45;;;;;;;;;;5009459;28;20065;-68
2022/08/13 06:21:51;;;;;;;13.07;4.50;;;;;;;;;;5009519;28;20050;-67
2022/08/13 06:24:17;;;;;;;14.18;4.40;;;;;;;;;;5010011;28;20129;-69
2022/08/13 06:26:43;;;;;;;;;;;;;;;;;;5010167;28;20449;-69
2022/08/13 06:29:10;;;;;;;12.27;4.10;;;;;;;;;;4991747;28;19981;-68
2022/08/13 06:31:38;;;;;;;12.35;4.20;;;;;;;;;;5009154;28;20449;-67
2022/08/13 06:34:09;;;;;;;11.05;4.40;;;;;;;;;;5009364;28;20188;-67
2022/08/13 06:36:37;;;;;;;14.18;4.32;;;;;;;;;;5008271;28;20446;-67
2022/08/13 06:39:04;;;;;;;13.60;4.55;;;;;;;;;;5009181;28;20098;-68
2022/08/13 06:41:31;;;;;;;14.65;4.20;;;;;;;;;;4991445;28;20152;-66
2022/08/13 06:43:58;;;;;;;10.75;4.00;;;;;;;;;;5009222;28;20070;-67
2022/08/13 06:46:26;;;;;;;13.15;4.10;;;;;;;;;;5008512;28;20349;-67
2022/08/13 06:48:52;;;;;;;10.55;3.60;;;;;;;;;;4990487;28;20050;-68
2022/08/13 06:51:19;;;;;;;10.90;4.57;;;;;;;;;;5008679;28;20422;-67
2022/08/13 06:53:47;;;;;;;9.63;4.05;;;;;;;;;;5008778;28;20053;-66
2022/08/13 06:56:16;;;;;;;14.88;4.40;;;;;;;;;;5008241;28;20079;-67
2022/08/13 06:58:47;;;;;;;12.00;4.15;;;;;;;;;;5008140;28;20156;-68
2022/08/13 07:01:17;;;;;;;14.13;3.85;;;;;;;;;;5008515;28;20054;-66
2022/08/13 07:03:47;;;;;;;12.43;4.18;;;;;;;;;;5008909;28;20053;-67
2022/08/13 07:06:20;;;;;;;12.00;3.95;;;;;;;;;;4990546;28;20127;-67
2022/08/13 07:08:47;;;;;;;13.57;4.10;;;;;;;;;;5008604;28;20046;-67
2022/08/13 07:11:22;;;;;;;11.23;3.78;;;;;;;;;;5008400;28;20046;-65
2022/08/13 07:13:52;;;;;;;13.70;4.18;;;;;;;;;;5008525;28;20509;-67
2022/08/13 07:16:21;;;;;;;13.00;4.13;;;;;;;;;;5008319;28;20114;-68
2022/08/13 07:18:49;;;;;;;9.95;3.78;;;;;;;;;;4989546;28;20053;-67
2022/08/13 07:21:17;;;;;;;10.57;3.78;;;;;;;;;;5008420;28;20084;-69
2022/08/13 07:23:44;;;;;;;12.38;4.00;;;;;;;;;;5008157;28;20392;-67
2022/08/13 07:26:13;;;;;;;12.50;3.45;;;;;;;;;;5008211;28;20088;-68
2022/08/13 07:28:49;;;;;;;14.18;3.58;;;;;;;;;;5008389;28;20081;-68
2022/08/13 07:31:17;;;;;;;10.57;3.80;;;;;;;;;;5008457;28;20068;-68
2022/08/13 07:33:49;;;;;;;14.98;3.97;;;;;;;;;;5011977;28;20121;-68
2022/08/13 07:36:15;;;;;;;14.68;3.60;;;;;;;;;;5012481;28;20224;-68
2022/08/13 07:38:42;;;;;;;13.10;3.15;;;;;;;;;;5012398;28;20038;-69
2022/08/13 07:41:10;;;;;;;14.70;3.40;;;;;;;;;;5012244;28;20195;-68
2022/08/13 07:43:39;;;;;;;12.10;3.30;;;;;;;;;;5012361;28;20054;-68
2022/08/13 07:46:12;;;;;;;8.45;3.47;;;;;;;;;;5012630;28;20049;-67
2022/08/13 07:48:40;;;;;;;10.30;3.30;;;;;;;;;;5013031;28;20275;-68
2022/08/13 07:51:08;;;;;;;11.85;3.10;;;;;;;;;;5012455;28;20129;-67
2022/08/13 07:53:36;;;;;;;10.70;3.22;;;;;;;;;;5012097;28;20188;-68
2022/08/13 07:56:04;;;;;;;9.43;3.05;;;;;;;;;;5012103;28;20065;-67
2022/08/13 07:58:30;;;;;;;14.48;3.45;;;;;;;;;;5012066;28;20080;-66
2022/08/13 08:00:59;;;;;;;10.38;2.90;;;;;;;;;;5012121;28;20061;-66
2022/08/13 08:03:30;;;;;;;12.25;3.55;;;;;;;;;;4993694;28;20120;-68
2022/08/13 08:05:59;;;;;;;9.02;3.33;;;;;;;;;;5012235;28;20152;-68
2022/08/13 08:08:27;;;;;;;10.07;3.25;;;;;;;;;;5011562;28;20052;-67
2022/08/13 08:10:54;;;;;;;8.15;3.08;;;;;;;;;;4993737;28;20069;-67
2022/08/13 08:13:21;;;;;;;9.80;3.05;;;;;;;;;;5011616;28;20132;-67
2022/08/13 08:15:47;;;;;;;7.68;2.70;;;;;;;;;;5011558;28;20050;-67
2022/08/13 08:18:14;;;;;;;8.43;2.78;;;;;;;;;;5011452;28;20065;-72
2022/08/13 08:20:42;;;;;;;7.60;3.05;;;;;;;;;;5011246;28;20127;-68
2022/08/13 08:23:10;;;;;;;8.90;2.85;;;;;;;;;;5011700;28;20080;-68
2022/08/13 08:25:36;;;;;;;8.10;3.03;;;;;;;;;;5011336;28;20092;-66
2022/08/13 08:28:02;;;;;;;7.43;2.65;;;;;;;;;;5011331;28;20081;-68
2022/08/13 08:30:29;;;;;;;8.95;3.05;;;;;;;;;;4993176;28;20046;-67
2022/08/13 08:32:56;;;;;;;8.35;3.00;;;;;;;;;;5011228;28;20057;-68
2022/08/13 08:35:24;;;;;;;9.15;3.10;;;;;;;;;;5010917;28;20064;-69
2022/08/13 08:43:36;;;;;;;8.77;3.00;;;;;;;;;;5010264;28;20108;-66
2022/08/13 08:46:05;;;;;;;12.25;3.13;;;;;;;;;;5011094;28;20049;-67
2022/08/13 08:48:32;;;;;;;12.93;3.67;;;;;;;;;;5010803;28;20160;-67
2022/08/13 08:50:59;;;;;;;8.75;2.63;;;;;;;;;;5011283;28;20057;-65
2022/08/13 08:53:27;;;;;;;9.27;2.85;;;;;;;;;;5010839;28;20541;-66
2022/08/13 08:55:53;;;;;;;6.85;2.95;;;;;;;;;;4992896;28;20140;-66
2022/08/13 08:58:19;;;;;;;8.70;2.90;;;;;;;;;;5010392;28;20457;-66
2022/08/13 09:00:47;;;;;;;10.48;2.83;;;;;;;;;;5011118;28;20080;-67
2022/08/13 09:03:18;;;;;;;9.68;2.80;;;;;;;;;;5010595;28;20504;-67
2022/08/13 09:05:45;;;;;;;9.60;2.60;;;;;;;;;;4993789;28;20072;-66
2022/08/13 09:08:14;;;;;;;9.55;2.78;;;;;;;;;;5010654;28;20486;-66
2022/08/13 09:10:40;;;;;;;8.73;2.97;;;;;;;;;;4977441;28;20096;-66
2022/08/13 09:13:06;;;;;;;8.65;2.95;;;;;;;;;;5010842;28;20114;-65
2022/08/13 09:15:34;;;;;;;13.40;2.83;;;;;;;;;;5010798;28;20049;-67
2022/08/13 09:18:01;;;;;;;7.75;2.72;;;;;;;;;;5010660;28;20045;-65
2022/08/13 09:20:33;;;;;;;10.20;2.80;;;;;;;;;;5010787;28;20045;-67
2022/08/13 09:23:07;;;;;;;8.38;3.10;;;;;;;;;;4992992;28;20068;-64
2022/08/13 09:25:34;;;;;;;9.48;2.78;;;;;;;;;;5010615;28;20087;-65
2022/08/13 09:28:00;;;;;;;7.70;2.53;;;;;;;;;;5010415;28;20503;-67
2022/08/13 09:30:26;;;;;;;7.97;2.85;;;;;;;;;;5010211;28;20064;-68
2022/08/13 09:32:54;;;;;;;9.00;2.85;;;;;;;;;;4992876;28;20140;-66
2022/08/13 09:35:20;;;;;;;10.02;2.85;;;;;;;;;;5010313;28;20129;-69
2022/08/13 09:37:48;;;;;;;11.20;2.88;;;;;;;;;;5010227;28;20042;-70
2022/08/13 09:40:16;;;;;;;9.52;2.75;;;;;;;;;;4992638;28;20049;-70
2022/08/13 09:42:57;;;;;;;7.90;2.63;;;;;;;;;;4976031;28;20248;-69
2022/08/13 09:45:30;;;;;;;10.25;2.90;;;;;;;;;;5007330;28;20176;-71
2022/08/13 09:47:57;;;;;;;6.57;2.40;;;;;;;;;;5010181;28;20465;-70
2022/08/13 09:50:24;;;;;;;12.90;3.17;;;;;;;;;;4992447;28;20197;-70
2022/08/13 09:52:52;;;;;;;10.02;3.05;;;;;;;;;;5010388;28;20515;-70
2022/08/13 09:55:19;;;;;;;6.63;2.50;;;;;;;;;;5009750;28;20400;-69
2022/08/13 09:57:55;;;;;;;9.13;2.50;;;;;;;;;;4992150;28;20057;-70
2022/08/13 10:00:24;;;;;;;8.30;2.70;;;;;;;;;;5009763;28;20224;-69
2022/08/13 10:02:54;;;;;;;7.13;2.55;;;;;;;;;;5009895;28;20061;-69
2022/08/13 10:05:20;;;;;;;8.25;2.78;;;;;;;;;;5009667;28;20050;-69
2022/08/13 10:07:48;;;;;;;7.80;2.78;;;;;;;;;;5010292;28;20106;-70
2022/08/13 10:10:14;;;;;;;8.88;2.80;;;;;;;;;;5009789;28;20066;-70
2022/08/13 10:12:41;;;;;;;6.78;2.80;;;;;;;;;;5009832;28;20124;-71
2022/08/13 10:15:10;;;;;;;8.07;2.90;;;;;;;;;;5010565;28;20046;-70
2022/08/13 10:17:45;;;;;;;6.60;2.85;;;;;;;;;;5009959;28;20081;-70
2022/08/13 10:20:12;;;;;;;7.10;2.90;;;;;;;;;;5009863;28;20139;-71
2022/08/13 10:22:38;;;;;;;7.15;2.63;;;;;;;;;;5008883;28;20069;-70
2022/08/13 10:25:04;;;;;;;9.18;2.95;;;;;;;;;;4992425;28;20046;-70
2022/08/13 10:27:30;;;;;;;8.75;3.10;;;;;;;;;;5008717;28;20141;-72
2022/08/13 10:29:56;;;;;;;10.05;3.10;;;;;;;;;;5009974;28;20057;-69
2022/08/13 10:32:22;;;;;;;11.55;3.05;;;;;;;;;;5009499;28;20053;-70
2022/08/13 10:34:50;;;;;;;6.57;2.70;;;;;;;;;;5009141;28;20090;-71
2022/08/13 10:37:16;;;;;;;6.50;2.65;;;;;;;;;;5009301;28;20108;-70
2022/08/13 10:39:42;;;;;;;9.63;2.80;;;;;;;;;;5009227;28;20049;-69
2022/08/13 10:42:08;;;;;;;9.25;2.65;;;;;;;;;;5009113;28;20056;-74
2022/08/13 10:44:34;;;;;;;8.88;2.80;;;;;;;;;;4975100;28;20056;-69
2022/08/13 10:47:00;;;;;;;10.55;2.47;;;;;;;;;;4991247;28;20057;-68
2022/08/13 10:49:28;;;;;;;8.68;2.40;;;;;;;;;;4991231;28;20089;-67
2022/08/13 10:51:54;;;;;;;6.93;2.83;;;;;;;;;;5009238;28;20050;-68
2022/08/13 10:54:25;;;;;;;8.30;2.63;;;;;;;;;;5008775;28;20110;-70
2022/08/13 10:56:51;;;;;;;6.80;2.63;;;;;;;;;;5008657;28;20150;-69
2022/08/13 10:59:17;;;;;;;5.25;2.45;;;;;;;;;;5009316;28;20054;-72
2022/08/13 11:01:43;;;;;;;9.25;2.78;;;;;;;;;;4991276;28;20066;-68
2022/08/13 11:04:09;;;;;;;7.53;3.00;;;;;;;;;;5009171;28;20057;-70
2022/08/13 11:06:36;;;;;;;8.10;2.67;;;;;;;;;;5008634;28;20111;-71
2022/08/13 11:09:04;;;;;;;9.15;2.95;;;;;;;;;;5009494;28;20064;-70
2022/08/13 11:11:30;;;;;;;7.88;2.55;;;;;;;;;;5009128;28;20046;-69
2022/08/13 11:13:56;;;;;;;8.40;2.70;;;;;;;;;;5009188;28;20283;-67
2022/08/13 11:19:06;;;;;;;7.07;2.60;;;;;;;;;;5007895;28;20132;-69
2022/08/13 11:21:32;;;;;;;7.68;2.63;;;;;;;;;;5008910;28;20073;-70
2022/08/13 11:23:58;;;;;;;8.43;2.80;;;;;;;;;;5008656;28;20114;-71
2022/08/13 11:26:24;;;;;;;7.07;2.63;;;;;;;;;;5008554;28;20061;-69
2022/08/13 11:28:50;;;;;;;9.52;2.55;;;;;;;;;;5008755;28;20145;-70
2022/08/13 11:31:16;;;;;;;7.95;2.83;;;;;;;;;;5008837;28;20450;-70
2022/08/13 11:33:42;;;;;;;8.60;2.92;;;;;;;;;;5008837;28;20387;-68
2022/08/13 11:36:09;;;;;;;6.93;2.50;;;;;;;;;;4991013;28;20386;-70
2022/08/13 11:38:35;;;;;;;7.95;3.05;;;;;;;;;;5008687;28;20050;-67
2022/08/13 11:41:01;;;;;;;6.10;2.60;;;;;;;;;;5008798;28;20137;-70
2022/08/13 11:43:29;;;;;;;6.97;2.70;;;;;;;;;;5008721;28;20046;-69
2022/08/13 11:45:56;;;;;;;7.40;2.75;;;;;;;;;;5008603;28;20050;-71
2022/08/13 11:48:22;;;;;;;8.90;2.70;;;;;;;;;;4974740;28;20461;-70
2022/08/13 11:50:49;;;;;;;8.57;3.20;;;;;;;;;;5008556;28;20046;-71
2022/08/13 11:53:15;;;;;;;7.53;2.80;;;;;;;;;;5008019;28;20123;-70
2022/08/13 11:55:41;;;;;;;7.90;2.78;;;;;;;;;;4991013;28;20078;-71
2022/08/13 11:58:08;;;;;;;8.20;2.70;;;;;;;;;;5008039;28;20075;-67
2022/08/13 12:00:38;;;;;;;7.07;2.55;;;;;;;;;;4990766;28;20115;-68
2022/08/13 12:03:05;;;;;;;6.68;2.65;;;;;;;;;;5008231;28;20073;-69
2022/08/13 12:05:31;;;;;;;12.18;2.80;;;;;;;;;;5008271;28;20045;-69
2022/08/13 12:07:57;;;;;;;11.15;3.42;;;;;;;;;;5007079;28;20104;-70
2022/08/13 12:10:23;;;;;;;9.00;3.00;;;;;;;;;;5007943;28;20050;-69
2022/08/13 12:12:50;;;;;;;8.55;2.88;;;;;;;;;;5008031;28;20041;-67
2022/08/13 12:15:16;;;;;;;7.63;2.85;;;;;;;;;;5007719;28;20458;-66
2022/08/13 12:17:44;;;;;;;8.05;2.60;;;;;;;;;;5007991;28;20128;-67
2022/08/13 12:20:11;;;;;;;7.05;2.88;;;;;;;;;;5011425;28;20049;-66
2022/08/13 12:22:38;;;;;;;8.70;3.00;;;;;;;;;;4993527;28;20042;-70
2022/08/13 12:25:04;;;;;;;7.72;2.70;;;;;;;;;;5011697;28;20100;-68
2022/08/13 12:27:30;;;;;;;10.80;2.60;;;;;;;;;;5011748;28;20486;-68
2022/08/13 12:29:56;;;;;;;8.10;2.88;;;;;;;;;;5011593;28;20374;-66
2022/08/13 12:32:23;;;;;;;13.07;2.67;;;;;;;;;;5011856;28;20369;-68
2022/08/13 12:34:49;;;;;;;8.40;2.65;;;;;;;;;;4977925;28;20076;-69
2022/08/13 12:37:15;;;;;;;6.00;2.53;;;;;;;;;;5011661;28;20042;-69
2022/08/13 12:39:41;;;;;;;9.73;3.03;;;;;;;;;;5011542;28;20141;-69
2022/08/13 12:42:07;;;;;;;9.05;2.72;;;;;;;;;;5011238;28;20061;-70
2022/08/13 12:44:36;;;;;;;7.20;2.67;;;;;;;;;;4992708;28;20220;-70
2022/08/13 12:47:02;;;;;;;5.72;2.50;;;;;;;;;;5011343;28;20121;-67
2022/08/13 12:49:29;;;;;;;9.80;3.10;;;;;;;;;;5011051;28;20072;-69
2022/08/13 12:51:55;;;;;;;9.60;2.88;;;;;;;;;;5010938;28;20110;-69
2022/08/13 12:54:22;;;;;;;8.02;2.78;;;;;;;;;;5011101;28;20504;-68
2022/08/13 12:56:49;;;;;;;7.50;2.75;;;;;;;;;;5010956;28;20050;-68
2022/08/13 12:59:15;;;;;;;7.35;2.70;;;;;;;;;;5010808;28;20089;-70
2022/08/13 13:01:41;;;;;;;7.45;2.60;;;;;;;;;;5011216;28;20129;-67
2022/08/13 13:04:09;;;;;;;7.43;2.80;;;;;;;;;;5010679;28;20336;-69
2022/08/13 13:06:35;;;;;;;8.32;2.92;;;;;;;;;;4993429;28;20459;-67
2022/08/13 13:09:01;;;;;;;8.90;2.90;;;;;;;;;;4992734;28;20127;-68
2022/08/13 13:11:27;;;;;;;7.00;2.90;;;;;;;;;;5010790;28;20057;-68
2022/08/13 13:13:54;;;;;;;11.93;2.78;;;;;;;;;;5010543;28;20089;-69
2022/08/13 13:16:21;;;;;;;9.13;3.22;;;;;;;;;;5011372;28;20050;-69
2022/08/13 13:18:47;;;;;;;11.15;2.90;;;;;;;;;;4977149;28;20118;-68
2022/08/13 13:21:13;;;;;;;12.38;2.92;;;;;;;;;;4993210;28;20057;-69
2022/08/13 13:23:40;;;;;;;11.40;2.95;;;;;;;;;;5011085;28;20061;-67
2022/08/13 13:26:06;;;;;;;9.73;3.47;;;;;;;;;;4993861;28;20082;-72
2022/08/13 13:28:33;;;;;;;12.65;3.20;;;;;;;;;;5011508;28;20174;-75
2022/08/13 13:30:59;;;;;;;8.77;3.40;;;;;;;;;;4979288;28;20382;-70
2022/08/13 13:33:26;;;;;;;8.45;3.00;;;;;;;;;;5013625;28;20053;-68
2022/08/13 13:35:53;;;;;;;9.32;3.00;;;;;;;;;;4995565;28;20463;-69
2022/08/13 13:38:21;;;;;;;11.30;3.00;;;;;;;;;;5012307;28;20501;-69
2022/08/13 13:40:48;;;;;;;9.60;3.35;;;;;;;;;;4993710;28;20042;-67
2022/08/13 13:43:15;;;;;;;8.98;3.40;;;;;;;;;;5010449;28;20045;-69
2022/08/13 13:45:44;;;;;;;10.68;3.20;;;;;;;;;;5010808;28;20124;-68
2022/08/13 13:48:18;;;;;;;9.15;3.33;;;;;;;;;;5010387;28;20049;-67
2022/08/13 13:50:45;;;;;;;8.63;3.30;;;;;;;;;;5010691;28;20092;-72
2022/08/13 13:53:11;;;;;;;10.40;2.85;;;;;;;;;;5010388;28;20106;-69
2022/08/13 13:55:38;;;;;;;9.20;3.00;;;;;;;;;;5010239;28;20517;-67
2022/08/13 13:58:04;;;;;;;9.48;3.40;;;;;;;;;;4993098;28;20120;-70
2022/08/13 14:00:32;;;;;;;9.60;3.10;;;;;;;;;;5010684;28;20053;-71
2022/08/13 14:03:00;;;;;;;9.10;3.30;;;;;;;;;;5010177;28;20050;-73
2022/08/13 14:05:27;;;;;;;9.48;3.05;;;;;;;;;;4992051;28;20061;-72
2022/08/13 14:07:56;;;;;;;9.48;3.00;;;;;;;;;;5010332;28;20134;-70
2022/08/13 14:10:23;;;;;;;9.63;3.30;;;;;;;;;;5010310;28;20362;-71
2022/08/13 14:12:52;;;;;;;9.32;3.00;;;;;;;;;;5010511;28;20088;-70
2022/08/13 14:15:19;;;;;;;6.95;3.03;;;;;;;;;;5010164;28;20057;-70
2022/08/13 14:17:46;;;;;;;8.27;3.00;;;;;;;;;;5010138;28;20065;-72
2022/08/13 14:20:13;;;;;;;9.68;3.00;;;;;;;;;;5010010;28;20050;-71
2022/08/13 14:22:42;;;;;;;9.63;3.50;;;;;;;;;;5009854;28;20085;-73
2022/08/13 14:25:13;;;;;;;10.70;3.42;;;;;;;;;;5010048;28;20073;-73
2022/08/13 14:27:39;;;;;;;8.48;3.17;;;;;;;;;;4976287;28;20041;-73
2022/08/13 14:30:06;;;;;;;9.02;3.50;;;;;;;;;;4992898;28;20053;-73
2022/08/13 14:32:36;;;;;;;8.57;3.30;;;;;;;;;;5010324;28;20435;-70
2022/08/13 14:35:28;;;;;;;9.68;3.10;;;;;;;;;;5010882;28;20145;-74
2022/08/13 14:37:54;;;;;;;9.65;3.50;;;;;;;;;;5008985;28;20104;-74
2022/08/13 14:40:22;;;;;;;10.00;3.53;;;;;;;;;;5013405;28;20049;-71
2022/08/13 14:42:55;;;;;;;8.18;3.00;;;;;;;;;;5011924;28;20045;-72
2022/08/13 14:48:09;;;;;;;9.20;3.05;;;;;;;;;;5011811;28;20045;-71
2022/08/13 14:50:39;;;;;;;10.85;3.50;;;;;;;;;;5011892;28;20052;-73
2022/08/13 14:53:07;;;;;;;9.90;3.30;;;;;;;;;;5011997;28;20056;-72
2022/08/13 14:55:34;;;;;;;11.32;3.42;;;;;;;;;;5010960;28;20061;-70
2022/08/13 14:58:01;;;;;;;8.35;3.25;;;;;;;;;;5010910;28;20498;-71
2022/08/13 15:00:29;;;;;;;11.13;3.28;;;;;;;;;;5010917;28;20136;-71
2022/08/13 15:02:56;;;;;;;8.48;3.05;;;;;;;;;;5011214;28;20133;-70